createdAt,value
2017-11-09T00:00:51.780Z,101046.94
2017-11-09T00:03:25.833Z,101049.14
2017-11-09T00:06:30.631Z,101050.95
2017-11-09T00:09:08.804Z,101046.45
2017-11-09T00:11:43.738Z,101050.36
2017-11-09T00:14:17.039Z,101048.97
2017-11-09T00:16:51.559Z,101048.34
2017-11-09T00:19:25.133Z,101052.27
2017-11-09T00:22:00.646Z,101048.36
2017-11-09T00:24:38.891Z,101046.88
2017-11-09T00:27:12.637Z,101044.76
2017-11-09T00:29:47.645Z,101043.83
2017-11-09T00:32:22.009Z,101050.03
2017-11-09T00:34:55.637Z,101050.02
2017-11-09T00:37:29.519Z,101047.16
2017-11-09T00:40:07.344Z,101053.19
2017-11-09T00:42:41.708Z,101042.95
2017-11-09T00:45:15.610Z,101051.52
2017-11-09T00:47:48.857Z,101050.14
2017-11-09T00:50:21.730Z,101048.41
2017-11-09T00:52:55.634Z,101049.20
2017-11-09T00:55:27.957Z,101045.59
2017-11-09T00:57:59.638Z,101044.61
2017-11-09T01:00:32.947Z,101051.10
2017-11-09T01:03:22.921Z,101049.27
2017-11-09T01:05:58.043Z,101052.14
2017-11-09T01:08:31.403Z,101053.59
2017-11-09T01:11:09.336Z,101062.44
2017-11-09T01:13:41.697Z,101050.88
2017-11-09T01:16:19.001Z,101054.38
2017-11-09T01:18:52.831Z,101051.77
2017-11-09T01:21:27.339Z,101050.37
2017-11-09T01:24:02.239Z,101055.52
2017-11-09T01:26:35.759Z,101049.20
2017-11-09T01:29:07.669Z,101049.59
2017-11-09T01:31:39.715Z,101044.36
2017-11-09T01:34:11.381Z,101046.00
2017-11-09T01:36:43.238Z,101050.98
2017-11-09T01:39:15.205Z,101049.80
2017-11-09T01:41:46.944Z,101057.06
2017-11-09T01:44:20.711Z,101048.55
2017-11-09T01:46:52.244Z,101045.05
2017-11-09T01:49:25.158Z,101052.70
2017-11-09T01:51:59.233Z,101045.78
2017-11-09T01:54:31.416Z,101049.67
2017-11-09T01:57:06.270Z,101059.48
2017-11-09T01:59:42.395Z,101058.47
2017-11-09T02:02:18.051Z,101059.17
2017-11-09T02:04:51.514Z,101058.03
2017-11-09T02:07:25.206Z,101053.83
2017-11-09T02:10:00.498Z,101048.06
2017-11-09T02:12:41.832Z,101051.27
2017-11-09T02:15:17.372Z,101048.38
2017-11-09T02:17:51.124Z,101048.21
2017-11-09T02:20:28.999Z,101056.09
2017-11-09T02:23:02.990Z,101055.38
2017-11-09T02:25:37.094Z,101071.45
2017-11-09T02:28:10.173Z,101068.81
2017-11-09T02:30:44.165Z,101062.34
2017-11-09T02:33:20.199Z,101061.36
2017-11-09T02:35:52.999Z,101063.86
2017-11-09T02:38:26.391Z,101065.38
2017-11-09T02:44:00.202Z,101068.20
2017-11-09T02:47:17.406Z,101065.44
2017-11-09T02:49:49.778Z,101066.00
2017-11-09T02:53:07.327Z,101070.10
2017-11-09T02:55:41.564Z,101067.18
2017-11-09T02:58:38.845Z,101072.87
2017-11-09T03:01:12.025Z,101069.81
2017-11-09T03:03:45.841Z,101065.28
2017-11-09T03:06:20.283Z,101067.34
2017-11-09T03:08:55.507Z,101069.59
2017-11-09T03:11:27.299Z,101064.42
2017-11-09T03:13:59.375Z,101069.29
2017-11-09T03:16:32.816Z,101065.02
2017-11-09T03:19:07.736Z,101067.26
2017-11-09T03:21:41.223Z,101069.09
2017-11-09T03:24:15.052Z,101068.95
2017-11-09T03:26:46.839Z,101073.36
2017-11-09T03:29:22.888Z,101074.06
2017-11-09T03:31:57.608Z,101071.88
2017-11-09T03:37:42.893Z,101082.19
2017-11-09T03:40:17.150Z,101083.92
2017-11-09T03:42:51.767Z,101079.56
2017-11-09T03:45:25.567Z,101086.91
2017-11-09T03:47:59.394Z,101085.53
2017-11-09T03:50:31.970Z,101089.96
2017-11-09T03:53:08.102Z,101084.00
2017-11-09T03:55:40.680Z,101075.64
2017-11-09T03:58:15.047Z,101083.78
2017-11-09T04:00:47.573Z,101084.53
2017-11-09T04:03:31.261Z,101092.88
2017-11-09T04:06:06.772Z,101091.64
2017-11-09T04:08:40.265Z,101094.26
2017-11-09T04:11:13.730Z,101102.80
2017-11-09T04:13:46.848Z,101100.69
2017-11-09T04:16:23.877Z,101103.43
2017-11-09T04:18:56.597Z,101100.02
2017-11-09T04:21:29.864Z,101103.09
2017-11-09T04:24:02.838Z,101102.15
2017-11-09T04:26:34.883Z,101104.11
2017-11-09T04:29:10.016Z,101103.97
2017-11-09T04:31:42.723Z,101102.70
2017-11-09T04:34:17.058Z,101110.56
2017-11-09T04:41:00.219Z,101112.52
2017-11-09T04:43:33.483Z,101116.17
2017-11-09T04:46:08.319Z,101111.80
2017-11-09T04:48:41.655Z,101120.04
2017-11-09T04:51:22.749Z,101124.33
2017-11-09T04:53:55.539Z,101130.81
2017-11-09T04:56:27.842Z,101126.85
2017-11-09T04:59:14.310Z,101136.23
2017-11-09T05:01:49.669Z,101137.03
2017-11-09T05:04:25.772Z,101141.25
2017-11-09T05:10:12.264Z,101139.91
2017-11-09T05:16:14.227Z,101153.11
2017-11-09T05:24:37.952Z,101153.73
2017-11-09T05:27:19.405Z,101154.96
2017-11-09T05:30:10.780Z,101157.13
2017-11-09T05:35:57.781Z,101164.58
2017-11-09T05:38:43.599Z,101165.87
2017-11-09T05:41:20.810Z,101168.05
2017-11-09T05:47:04.888Z,101165.67
2017-11-09T05:49:44.851Z,101166.54
2017-11-09T05:52:35.102Z,101170.53
2017-11-09T05:55:37.133Z,101174.91
2017-11-09T05:58:18.098Z,101177.24
2017-11-09T06:00:52.590Z,101181.61
2017-11-09T06:03:25.988Z,101180.16
2017-11-09T06:06:00.883Z,101185.61
2017-11-09T06:08:34.875Z,101194.83
2017-11-09T06:11:12.684Z,101193.95
2017-11-09T06:13:46.721Z,101189.45
2017-11-09T06:16:20.492Z,101189.39
2017-11-09T06:18:54.627Z,101192.44
2017-11-09T06:24:31.450Z,101194.48
2017-11-09T06:27:03.242Z,101191.50
2017-11-09T06:29:34.926Z,101196.74
2017-11-09T06:32:06.249Z,101199.05
2017-11-09T06:34:37.581Z,101201.24
2017-11-09T06:37:09.193Z,101196.67
2017-11-09T06:39:40.509Z,101200.78
2017-11-09T06:42:12.064Z,101205.16
2017-11-09T06:44:43.355Z,101209.39
2017-11-09T06:47:14.668Z,101220.98
2017-11-09T06:49:46.405Z,101217.75
2017-11-09T06:52:17.781Z,101221.25
2017-11-09T06:54:49.124Z,101224.19
2017-11-09T06:57:25.747Z,101221.84
2017-11-09T06:59:57.495Z,101220.02
2017-11-09T07:02:29.072Z,101224.80
2017-11-09T07:05:00.582Z,101230.91
2017-11-09T07:07:32.154Z,101229.38
2017-11-09T07:10:05.422Z,101232.94
2017-11-09T07:12:36.970Z,101242.31
2017-11-09T07:15:08.588Z,101240.95
2017-11-09T07:17:39.938Z,101237.77
2017-11-09T07:20:11.312Z,101234.55
2017-11-09T07:22:45.590Z,101246.28
2017-11-09T07:25:16.919Z,101253.28
2017-11-09T07:27:48.672Z,101249.48
2017-11-09T07:30:20.344Z,101252.48
2017-11-09T07:32:53.840Z,101258.02
2017-11-09T07:35:29.146Z,101253.55
2017-11-09T07:38:00.673Z,101252.55
2017-11-09T07:40:32.400Z,101250.37
2017-11-09T07:43:06.898Z,101260.98
2017-11-09T07:45:38.973Z,101260.13
2017-11-09T07:48:10.368Z,101261.94
2017-11-09T07:50:41.932Z,101253.22
2017-11-09T07:53:13.559Z,101254.72
2017-11-09T07:55:44.944Z,101254.30
2017-11-09T07:58:16.830Z,101255.55
2017-11-09T08:00:48.646Z,101254.23
2017-11-09T08:05:58.997Z,101259.22
2017-11-09T08:08:30.691Z,101266.32
2017-11-09T08:11:05.076Z,101270.11
2017-11-09T08:13:36.515Z,101271.79
2017-11-09T08:16:12.930Z,101276.28
2017-11-09T08:18:45.293Z,101271.41
2017-11-09T08:24:42.503Z,101280.77
2017-11-09T08:27:19.415Z,101282.83
2017-11-09T08:30:11.442Z,101283.64
2017-11-09T08:32:57.908Z,101288.93
2017-11-09T08:35:32.558Z,101292.72
2017-11-09T08:38:06.390Z,101295.16
2017-11-09T08:40:39.985Z,101296.39
2017-11-09T08:45:56.375Z,101303.81
2017-11-09T08:48:32.236Z,101303.81
2017-11-09T08:51:06.587Z,101304.16
2017-11-09T08:53:38.841Z,101301.61
2017-11-09T08:56:10.798Z,101307.47
2017-11-09T08:58:51.611Z,101308.82
2017-11-09T09:01:29.398Z,101312.86
2017-11-09T09:04:15.613Z,101308.74
2017-11-09T09:09:59.206Z,101316.88
2017-11-09T09:12:48.736Z,101316.13
2017-11-09T09:19:58.248Z,101320.88
2017-11-09T09:22:34.254Z,101321.58
2017-11-09T09:28:16.992Z,101324.51
2017-11-09T09:30:57.789Z,101325.75
2017-11-09T09:33:43.954Z,101331.34
2017-11-09T09:36:30.463Z,101339.02
2017-11-09T09:39:12.173Z,101339.75
2017-11-09T09:44:52.881Z,101335.01
2017-11-09T09:47:34.587Z,101341.36
2017-11-09T09:50:13.693Z,101345.79
2017-11-09T09:52:47.349Z,101341.05
2017-11-09T09:55:22.319Z,101339.02
2017-11-09T09:58:00.030Z,101344.94
2017-11-09T10:00:41.901Z,101340.31
2017-11-09T10:03:39.572Z,101340.45
2017-11-09T10:06:15.724Z,101342.97
2017-11-09T10:08:52.757Z,101342.45
2017-11-09T10:11:30.578Z,101340.91
2017-11-09T10:14:14.987Z,101342.36
2017-11-09T10:16:58.560Z,101336.83
2017-11-09T10:19:38.112Z,101340.33
2017-11-09T10:22:20.429Z,101341.83
2017-11-09T10:27:50.865Z,101343.67
2017-11-09T10:30:23.522Z,101337.50
2017-11-09T10:32:54.933Z,101338.29
2017-11-09T10:35:27.008Z,101340.26
2017-11-09T10:37:58.704Z,101342.28
2017-11-09T10:40:30.244Z,101333.21
2017-11-09T10:43:02.154Z,101333.94
2017-11-09T10:45:33.592Z,101335.16
2017-11-09T10:48:07.057Z,101334.70
2017-11-09T10:50:40.284Z,101336.02
2017-11-09T10:53:12.273Z,101332.63
2017-11-09T10:55:43.666Z,101324.38
2017-11-09T10:58:15.842Z,101328.02
2017-11-09T11:00:48.092Z,101319.31
2017-11-09T11:03:19.508Z,101319.16
2017-11-09T11:08:52.606Z,101322.94
2017-11-09T11:11:23.989Z,101318.39
2017-11-09T11:13:55.673Z,101316.13
2017-11-09T11:16:27.767Z,101316.94
2017-11-09T11:18:59.131Z,101326.69
2017-11-09T11:21:30.843Z,101323.61
2017-11-09T11:24:03.092Z,101319.88
2017-11-09T11:26:34.806Z,101317.02
2017-11-09T11:29:06.972Z,101326.94
2017-11-09T11:31:38.357Z,101321.47
2017-11-09T11:34:10.204Z,101326.06
2017-11-09T11:36:41.677Z,101322.76
2017-11-09T11:39:13.043Z,101324.13
2017-11-09T11:41:44.478Z,101325.94
2017-11-09T11:44:17.095Z,101320.63
2017-11-09T11:46:48.876Z,101322.00
2017-11-09T11:49:20.323Z,101317.75
2017-11-09T11:51:53.037Z,101321.08
2017-11-09T11:54:24.800Z,101319.62
2017-11-09T11:56:56.567Z,101320.50
2017-11-09T11:59:28.465Z,101321.86
2017-11-09T12:01:59.899Z,101320.23
2017-11-09T12:04:33.054Z,101316.01
2017-11-09T12:07:04.966Z,101314.38
2017-11-09T12:09:36.826Z,101310.92
2017-11-09T12:12:14.860Z,101301.43
2017-11-09T12:14:46.559Z,101300.60
2017-11-09T12:17:18.289Z,101297.95
2017-11-09T12:19:50.348Z,101295.56
2017-11-09T12:22:22.158Z,101293.52
2017-11-09T12:24:53.565Z,101290.33
2017-11-09T12:27:25.014Z,101286.03
2017-11-09T12:29:57.009Z,101292.67
2017-11-09T12:32:30.941Z,101287.64
2017-11-09T12:35:04.126Z,101291.14
2017-11-09T12:37:35.775Z,101290.93
2017-11-09T12:40:08.434Z,101297.80
2017-11-09T12:42:40.266Z,101295.17
2017-11-09T12:45:11.787Z,101290.00
2017-11-09T12:47:45.269Z,101294.42
2017-11-09T12:50:16.887Z,101286.98
2017-11-09T12:52:48.323Z,101291.20
2017-11-09T12:55:20.337Z,101295.97
2017-11-09T12:57:53.506Z,101301.67
2017-11-09T13:00:26.648Z,101299.02
2017-11-09T13:02:58.527Z,101299.97
2017-11-09T13:05:30.469Z,101294.16
2017-11-09T13:08:05.035Z,101297.36
2017-11-09T13:10:36.423Z,101302.59
2017-11-09T13:13:08.122Z,101303.50
2017-11-09T13:15:40.318Z,101302.64
2017-11-09T13:18:12.251Z,101302.70
2017-11-09T13:20:44.334Z,101301.70
2017-11-09T13:23:22.274Z,101299.22
2017-11-09T13:25:54.008Z,101297.97
2017-11-09T13:28:25.871Z,101299.55
2017-11-09T13:30:57.648Z,101296.68
2017-11-09T13:33:32.399Z,101299.45
2017-11-09T13:39:09.596Z,101293.42
2017-11-09T13:41:41.039Z,101296.68
2017-11-09T13:44:16.396Z,101296.00
2017-11-09T13:49:29.169Z,101301.97
2017-11-09T13:52:05.936Z,101303.36
2017-11-09T13:54:37.371Z,101296.00
2017-11-09T13:57:11.173Z,101299.19
2017-11-09T13:59:42.594Z,101300.78
2017-11-09T14:02:15.702Z,101295.19
2017-11-09T14:04:47.130Z,101296.59
2017-11-09T14:07:20.636Z,101290.45
2017-11-09T14:09:53.140Z,101301.67
2017-11-09T14:12:25.989Z,101299.26
2017-11-09T14:14:57.402Z,101303.80
2017-11-09T14:17:33.969Z,101298.61
2017-11-09T14:20:16.717Z,101303.52
2017-11-09T14:22:48.533Z,101309.20
2017-11-09T14:25:21.735Z,101304.44
2017-11-09T14:27:56.674Z,101304.67
2017-11-09T14:30:28.751Z,101303.95
2017-11-09T14:33:01.399Z,101299.95
2017-11-09T14:35:33.042Z,101301.72
2017-11-09T14:38:13.245Z,101305.90
2017-11-09T14:40:44.666Z,101309.00
2017-11-09T14:43:17.689Z,101313.91
2017-11-09T14:45:49.738Z,101302.59
2017-11-09T14:48:26.186Z,101311.78
2017-11-09T14:50:59.781Z,101311.28
2017-11-09T14:53:33.534Z,101317.05
2017-11-09T14:56:10.314Z,101316.24
2017-11-09T14:58:43.671Z,101325.08
2017-11-09T15:04:23.312Z,101328.71
2017-11-09T15:06:56.294Z,101328.65
2017-11-09T15:09:37.954Z,101336.59
2017-11-09T15:12:13.801Z,101342.52
2017-11-09T15:14:45.312Z,101340.55
2017-11-09T15:20:22.334Z,101355.33
2017-11-09T15:22:54.640Z,101361.09
2017-11-09T15:25:27.749Z,101357.52
2017-11-09T15:28:00.437Z,101355.09
2017-11-09T15:30:34.347Z,101360.87
2017-11-09T15:33:07.805Z,101358.75
2017-11-09T15:35:39.201Z,101357.08
2017-11-09T15:38:21.485Z,101357.36
2017-11-09T15:40:53.276Z,101364.91
2017-11-09T15:43:24.950Z,101359.77
2017-11-09T15:45:56.521Z,101364.25
2017-11-09T15:48:28.362Z,101366.73
2017-11-09T15:51:00.090Z,101379.33
2017-11-09T15:53:31.438Z,101380.21
2017-11-09T15:56:05.387Z,101381.15
2017-11-09T15:58:36.791Z,101390.22
2017-11-09T16:01:09.036Z,101397.20
2017-11-09T16:03:41.154Z,101395.57
2017-11-09T16:06:17.031Z,101400.52
2017-11-09T16:08:48.944Z,101401.08
2017-11-09T16:11:21.022Z,101400.59
2017-11-09T16:13:52.560Z,101406.16
2017-11-09T16:16:24.644Z,101406.21
2017-11-09T16:18:56.062Z,101416.77
2017-11-09T16:21:30.098Z,101421.45
2017-11-09T16:24:03.663Z,101423.20
2017-11-09T16:26:39.774Z,101417.94
2017-11-09T16:29:11.752Z,101423.63
2017-11-09T16:31:43.142Z,101425.36
2017-11-09T16:34:15.558Z,101426.36
2017-11-09T16:36:48.171Z,101422.86
2017-11-09T16:39:20.453Z,101420.48
2017-11-09T16:41:53.120Z,101416.13
2017-11-09T16:44:24.699Z,101422.66
2017-11-09T16:46:57.015Z,101424.72
2017-11-09T16:49:28.381Z,101424.66
2017-11-09T16:51:59.946Z,101421.67
2017-11-09T16:54:32.856Z,101412.98
2017-11-09T16:57:05.628Z,101420.80
2017-11-09T16:59:37.325Z,101419.55
2017-11-09T17:02:10.759Z,101422.12
2017-11-09T17:04:42.125Z,101423.93
2017-11-09T17:07:13.996Z,101424.80
2017-11-09T17:09:45.342Z,101429.47
2017-11-09T17:12:20.513Z,101426.91
2017-11-09T17:15:04.181Z,101425.98
2017-11-09T17:17:36.857Z,101431.22
2017-11-09T17:20:11.183Z,101429.55
2017-11-09T17:22:43.713Z,101434.34
2017-11-09T17:25:16.320Z,101428.65
2017-11-09T17:27:48.762Z,101427.34
2017-11-09T17:30:23.150Z,101425.61
2017-11-09T17:32:54.880Z,101420.85
2017-11-09T17:35:27.621Z,101422.48
2017-11-09T17:37:59.815Z,101427.66
2017-11-09T17:40:32.598Z,101431.50
2017-11-09T17:43:08.205Z,101435.83
2017-11-09T17:45:39.551Z,101436.20
2017-11-09T17:48:12.570Z,101437.05
2017-11-09T17:50:44.664Z,101434.08
2017-11-09T17:53:17.061Z,101428.83
2017-11-09T17:55:48.946Z,101430.15
2017-11-09T17:58:21.737Z,101423.20
2017-11-09T18:00:53.113Z,101419.16
2017-11-09T18:03:25.888Z,101420.15
2017-11-09T18:05:57.237Z,101428.47
2017-11-09T18:08:29.897Z,101426.16
2017-11-09T18:11:02.788Z,101426.95
2017-11-09T18:13:36.574Z,101425.20
2017-11-09T18:16:09.676Z,101423.89
2017-11-09T18:18:41.284Z,101426.08
2017-11-09T18:21:12.745Z,101424.39
2017-11-09T18:23:47.508Z,101427.00
2017-11-09T18:26:24.138Z,101422.63
2017-11-09T18:28:56.463Z,101411.65
2017-11-09T18:31:36.329Z,101412.95
2017-11-09T18:34:11.341Z,101420.51
2017-11-09T18:36:42.840Z,101415.98
2017-11-09T18:39:18.307Z,101424.78
2017-11-09T18:41:51.191Z,101418.37
2017-11-09T18:44:27.243Z,101429.17
2017-11-09T18:46:58.762Z,101428.88
2017-11-09T18:49:34.020Z,101428.17
2017-11-09T18:52:13.889Z,101423.96
2017-11-09T18:54:47.643Z,101426.77
2017-11-09T18:57:23.384Z,101431.72
2017-11-09T19:00:00.209Z,101441.63
2017-11-09T19:02:31.956Z,101441.56
2017-11-09T19:05:09.435Z,101436.37
2017-11-09T19:07:45.573Z,101437.30
2017-11-09T19:10:20.330Z,101434.34
2017-11-09T19:12:52.386Z,101436.23
2017-11-09T19:15:24.406Z,101440.71
2017-11-09T19:17:58.151Z,101445.84
2017-11-09T19:20:30.236Z,101444.66
2017-11-09T19:23:01.688Z,101442.03
2017-11-09T19:25:33.512Z,101450.22
2017-11-09T19:28:09.694Z,101442.17
2017-11-09T19:30:41.464Z,101434.73
2017-11-09T19:33:13.731Z,101426.87
2017-11-09T19:35:45.687Z,101428.12
2017-11-09T19:38:23.933Z,101441.66
2017-11-09T19:40:56.943Z,101439.42
2017-11-09T19:43:28.714Z,101446.77
2017-11-09T19:46:07.312Z,101437.97
2017-11-09T19:48:39.194Z,101439.20
2017-11-09T19:51:12.119Z,101440.98
2017-11-09T19:53:43.715Z,101443.16
2017-11-09T19:56:19.241Z,101454.64
2017-11-09T19:58:53.388Z,101467.73
2017-11-09T20:01:27.654Z,101466.44
2017-11-09T20:04:04.907Z,101467.66
2017-11-09T20:06:39.908Z,101466.42
2017-11-09T20:09:11.462Z,101457.58
2017-11-09T20:11:45.645Z,101452.88
2017-11-09T20:14:25.119Z,101465.51
2017-11-09T20:16:58.513Z,101466.50
2017-11-09T20:19:29.929Z,101470.87
2017-11-09T20:22:04.501Z,101473.91
2017-11-09T20:24:36.117Z,101472.56
2017-11-09T20:27:09.870Z,101479.45
2017-11-09T20:29:42.194Z,101479.47
2017-11-09T20:32:15.266Z,101471.19
2017-11-09T20:34:48.595Z,101477.30
2017-11-09T20:37:22.409Z,101481.35
2017-11-09T20:39:55.172Z,101468.43
2017-11-09T20:42:28.740Z,101465.87
2017-11-09T20:45:01.551Z,101476.10
2017-11-09T20:47:36.009Z,101472.23
2017-11-09T20:50:12.978Z,101475.61
2017-11-09T20:52:44.936Z,101481.77
2017-11-09T20:55:18.706Z,101477.73
2017-11-09T20:57:50.997Z,101474.35
2017-11-09T21:00:25.760Z,101479.41
2017-11-09T21:02:58.404Z,101489.09
2017-11-09T21:08:38.741Z,101494.17
2017-11-09T21:11:12.490Z,101500.40
2017-11-09T21:13:48.310Z,101503.58
2017-11-09T21:16:25.064Z,101506.76
2017-11-09T21:18:56.525Z,101512.97
2017-11-09T21:21:28.150Z,101509.06
2017-11-09T21:24:01.845Z,101508.95
2017-11-09T21:26:36.810Z,101508.95
2017-11-09T21:29:15.650Z,101509.06
2017-11-09T21:34:45.213Z,101505.45
2017-11-09T21:37:26.214Z,101511.02
2017-11-09T21:43:00.044Z,101513.19
2017-11-09T21:45:47.019Z,101500.14
2017-11-09T21:48:27.192Z,101492.68
2017-11-09T21:51:02.364Z,101489.12
2017-11-09T21:53:38.460Z,101484.27
2017-11-09T21:56:22.595Z,101481.20
2017-11-09T21:59:28.720Z,101479.03
2017-11-09T22:02:12.491Z,101476.03
2017-11-09T22:05:35.919Z,101483.00
2017-11-09T22:08:12.819Z,101479.95
2017-11-09T22:10:56.691Z,101483.77
2017-11-09T22:13:31.850Z,101479.78
2017-11-09T22:16:22.692Z,101480.27
2017-11-09T22:19:03.253Z,101473.85
2017-11-09T22:25:18.649Z,101466.78
2017-11-09T22:33:49.579Z,101475.31
2017-11-09T22:36:40.797Z,101472.72
2017-11-09T22:39:16.726Z,101471.22
2017-11-09T22:41:50.488Z,101467.28
2017-11-09T22:53:58.807Z,101451.52
2017-11-09T22:56:39.726Z,101452.41
2017-11-09T22:59:16.073Z,101454.56
2017-11-09T23:01:57.397Z,101452.45
2017-11-09T23:04:43.061Z,101456.42
2017-11-09T23:07:22.101Z,101472.53
2017-11-09T23:20:24.890Z,101467.69
2017-11-09T23:25:55.816Z,101456.15
2017-11-09T23:34:18.933Z,101421.83
2017-11-09T23:37:00.007Z,101421.50
2017-11-09T23:39:45.413Z,101426.72
2017-11-09T23:51:34.345Z,101403.25
2017-11-09T23:54:17.468Z,101401.16
2017-11-09T23:57:04.527Z,101399.48
2017-11-09T23:59:51.706Z,101402.20
